createdAt,value
2024-01-01T00:01:39.708Z,17.33
2024-01-01T00:04:12.416Z,16.38
2024-01-01T00:06:40.631Z,17.60
2024-01-01T00:09:11.630Z,18.73
2024-01-01T00:11:42.140Z,20.73
2024-01-01T00:14:12.851Z,19.55
2024-01-01T00:16:43.076Z,25.48
2024-01-01T00:19:14.026Z,22.67
2024-01-01T00:21:42.146Z,23.33
2024-01-01T00:24:10.220Z,23.38
2024-01-01T00:26:38.293Z,27.48
2024-01-01T00:29:17.078Z,25.27
2024-01-01T00:32:20.306Z,27.25
2024-01-01T00:34:49.513Z,32.00
2024-01-01T00:37:21.500Z,26.20
2024-01-01T00:39:49.839Z,32.90
2024-01-01T00:42:17.766Z,30.92
2024-01-01T00:44:46.405Z,30.50
2024-01-01T00:47:16.137Z,30.73
2024-01-01T00:49:44.471Z,37.47
2024-01-01T00:52:13.816Z,26.67
2024-01-01T00:54:41.676Z,31.65
2024-01-01T00:57:09.986Z,30.55
2024-01-01T00:59:38.959Z,28.83
2024-01-01T01:02:06.851Z,29.83
2024-01-01T01:04:35.434Z,30.40
2024-01-01T01:07:03.952Z,32.67
2024-01-01T01:09:33.385Z,20.00
2024-01-01T01:12:02.488Z,24.00
2024-01-01T01:14:30.342Z,21.77
2024-01-01T01:16:58.240Z,18.25
2024-01-01T01:19:26.069Z,17.02
2024-01-01T01:21:54.054Z,20.75
2024-01-01T01:24:21.907Z,17.98
2024-01-01T01:26:51.109Z,18.80
2024-01-01T01:29:19.183Z,15.13
2024-01-01T01:31:49.759Z,16.25
2024-01-01T01:34:17.692Z,14.60
2024-01-01T01:36:45.553Z,19.63
2024-01-01T01:39:42.035Z,13.38
2024-01-01T01:42:11.681Z,15.85
2024-01-01T01:44:41.356Z,13.85
2024-01-01T01:47:11.224Z,19.10
2024-01-01T01:49:40.581Z,19.17
2024-01-01T01:52:11.731Z,16.42
2024-01-01T01:54:41.704Z,18.77
2024-01-01T01:57:12.952Z,13.68
2024-01-01T01:59:43.952Z,13.90
2024-01-01T02:02:12.722Z,16.63
2024-01-01T02:04:41.859Z,16.25
2024-01-01T02:07:09.992Z,17.33
2024-01-01T02:09:39.916Z,14.35
2024-01-01T02:12:10.298Z,15.00
2024-01-01T02:14:39.697Z,17.25
2024-01-01T02:17:07.595Z,16.27
2024-01-01T02:19:38.200Z,15.85
2024-01-01T02:22:09.164Z,13.05
2024-01-01T02:24:38.674Z,11.80
2024-01-01T02:27:06.637Z,14.20
2024-01-01T02:29:34.445Z,13.30
2024-01-01T02:32:04.858Z,12.88
2024-01-01T02:34:32.820Z,15.00
2024-01-01T02:37:00.821Z,14.00
2024-01-01T02:39:28.936Z,11.80
2024-01-01T02:41:58.196Z,10.38
2024-01-01T02:44:26.618Z,14.07
2024-01-01T02:46:54.390Z,14.77
2024-01-01T02:49:22.308Z,11.65
2024-01-01T02:51:50.132Z,13.27
2024-01-01T02:54:18.060Z,16.38
2024-01-01T02:56:47.429Z,11.75
2024-01-01T02:59:18.132Z,13.73
2024-01-01T03:01:46.042Z,11.07
2024-01-01T03:04:13.894Z,12.98
2024-01-01T03:06:41.840Z,10.98
2024-01-01T03:09:09.757Z,12.68
2024-01-01T03:11:37.627Z,8.20
2024-01-01T03:14:05.531Z,8.60
2024-01-01T03:16:35.318Z,11.43
2024-01-01T03:19:05.062Z,5.95
2024-01-01T03:21:33.421Z,10.05
2024-01-01T03:24:01.348Z,4.07
2024-01-01T03:26:29.675Z,6.15
2024-01-01T03:29:01.464Z,8.45
2024-01-01T03:31:29.405Z,9.05
2024-01-01T03:33:59.043Z,5.53
2024-01-01T03:36:27.162Z,4.22
2024-01-01T03:38:55.036Z,4.88
2024-01-01T03:41:25.479Z,4.22
2024-01-01T03:43:53.713Z,9.07
2024-01-01T03:46:21.625Z,7.50
2024-01-01T03:48:49.679Z,12.43
2024-01-01T03:51:20.224Z,9.00
2024-01-01T03:54:19.884Z,6.47
2024-01-01T03:56:47.779Z,6.45
2024-01-01T03:59:15.690Z,6.70
2024-01-01T04:01:43.627Z,8.02
2024-01-01T04:04:12.174Z,8.73
2024-01-01T04:06:41.899Z,7.32
2024-01-01T04:09:09.824Z,11.65
2024-01-01T04:11:37.713Z,6.53
2024-01-01T04:14:05.893Z,7.05
2024-01-01T04:16:33.967Z,7.88
2024-01-01T04:19:02.225Z,6.88
2024-01-01T04:21:30.203Z,8.77
2024-01-01T04:23:59.572Z,9.43
2024-01-01T04:26:27.656Z,16.65
2024-01-01T04:28:55.487Z,11.57
2024-01-01T04:31:23.307Z,8.05
2024-01-01T04:33:51.231Z,6.38
2024-01-01T04:36:20.423Z,11.10
2024-01-01T04:38:48.495Z,7.93
2024-01-01T04:41:19.971Z,9.43
2024-01-01T04:43:47.884Z,11.40
2024-01-01T04:46:15.663Z,8.70
2024-01-01T04:48:44.658Z,6.00
2024-01-01T04:51:14.503Z,9.90
2024-01-01T04:53:42.508Z,10.25
2024-01-01T04:56:11.444Z,12.70
2024-01-01T04:58:41.089Z,9.32
2024-01-01T05:01:12.533Z,9.35
2024-01-01T05:03:41.514Z,8.48
2024-01-01T05:06:10.597Z,11.73
2024-01-01T05:08:39.371Z,12.48
2024-01-01T05:11:07.541Z,11.48
2024-01-01T05:13:35.579Z,13.52
2024-01-01T05:16:08.930Z,11.63
2024-01-01T05:18:36.997Z,9.93
2024-01-01T05:21:05.820Z,10.93
2024-01-01T05:23:36.116Z,8.73
2024-01-01T05:26:04.606Z,10.57
2024-01-01T05:28:32.617Z,9.40
2024-01-01T05:31:07.886Z,13.55
2024-01-01T05:33:36.928Z,6.70
2024-01-01T05:36:12.460Z,7.25
2024-01-01T05:38:42.443Z,8.52
2024-01-01T05:41:11.448Z,11.07
2024-01-01T05:43:39.676Z,6.93
2024-01-01T05:46:08.930Z,14.45
2024-01-01T05:48:40.843Z,8.65
2024-01-01T05:51:10.196Z,9.05
2024-01-01T05:53:38.698Z,12.10
2024-01-01T05:56:08.291Z,11.00
2024-01-01T05:58:36.333Z,9.65
2024-01-01T06:01:05.332Z,13.77
2024-01-01T06:03:34.676Z,8.48
2024-01-01T06:06:09.716Z,7.35
2024-01-01T06:08:37.624Z,9.88
2024-01-01T06:11:05.592Z,8.25
2024-01-01T06:13:35.968Z,5.95
2024-01-01T06:16:04.516Z,7.95
2024-01-01T06:18:34.619Z,7.78
2024-01-01T06:21:02.672Z,7.28
2024-01-01T06:23:30.861Z,10.13
2024-01-01T06:25:58.929Z,10.90
2024-01-01T06:28:27.616Z,9.23
2024-01-01T06:30:55.520Z,7.40
2024-01-01T06:33:23.506Z,9.15
2024-01-01T06:35:52.925Z,8.27
2024-01-01T06:38:21.721Z,9.38
2024-01-01T06:40:49.823Z,7.70
2024-01-01T06:43:19.205Z,8.70
2024-01-01T06:45:47.150Z,9.55
2024-01-01T06:48:15.278Z,6.45
2024-01-01T06:50:43.273Z,7.57
2024-01-01T06:53:12.893Z,10.13
2024-01-01T06:55:41.115Z,6.95
2024-01-01T06:58:09.390Z,5.32
2024-01-01T07:00:37.988Z,11.48
2024-01-01T07:03:06.498Z,7.38
2024-01-01T07:05:35.543Z,9.57
2024-01-01T07:08:05.666Z,9.38
2024-01-01T07:10:36.064Z,10.20
2024-01-01T07:13:04.482Z,7.57
2024-01-01T07:15:33.348Z,7.53
2024-01-01T07:18:03.128Z,5.03
2024-01-01T07:20:32.238Z,8.48
2024-01-01T07:23:02.432Z,7.32
2024-01-01T07:25:37.289Z,7.93
2024-01-01T07:28:07.149Z,9.07
2024-01-01T07:30:38.341Z,7.10
2024-01-01T07:33:07.233Z,6.82
2024-01-01T07:35:35.109Z,8.85
2024-01-01T07:38:05.954Z,6.80
2024-01-01T07:40:34.466Z,7.82
2024-01-01T07:43:04.565Z,7.28
2024-01-01T07:45:33.935Z,7.40
2024-01-01T07:48:02.124Z,9.05
2024-01-01T07:50:30.566Z,7.32
2024-01-01T07:52:58.594Z,8.30
2024-01-01T07:55:26.571Z,7.10
2024-01-01T07:57:55.946Z,6.63
2024-01-01T08:00:27.665Z,6.80
2024-01-01T08:02:56.034Z,6.03
2024-01-01T08:05:23.881Z,6.32
2024-01-01T08:07:52.356Z,5.57
2024-01-01T08:10:20.331Z,9.35
2024-01-01T08:12:48.917Z,7.13
2024-01-01T08:15:17.041Z,7.78
2024-01-01T08:17:46.282Z,3.90
2024-01-01T08:20:14.793Z,6.35
2024-01-01T08:22:42.796Z,4.38
2024-01-01T08:25:10.814Z,4.30
2024-01-01T08:27:38.712Z,6.80
2024-01-01T08:30:12.330Z,8.30
2024-01-01T08:32:41.088Z,4.25
2024-01-01T08:35:12.027Z,6.75
2024-01-01T08:37:40.518Z,10.32
2024-01-01T08:40:09.781Z,7.70
2024-01-01T08:42:37.870Z,7.90
2024-01-01T08:45:08.158Z,8.50
2024-01-01T08:47:37.413Z,7.25
2024-01-01T08:50:07.196Z,7.25
2024-01-01T08:52:36.432Z,6.47
2024-01-01T08:55:05.134Z,8.45
2024-01-01T08:57:33.059Z,7.82
2024-01-01T09:00:00.915Z,5.60
2024-01-01T09:02:33.001Z,8.27
2024-01-01T09:05:02.254Z,7.15
2024-01-01T09:07:30.176Z,4.47
2024-01-01T09:10:02.147Z,6.20
2024-01-01T09:12:30.716Z,8.93
2024-01-01T09:14:58.934Z,7.53
2024-01-01T09:17:27.172Z,6.55
2024-01-01T09:19:57.606Z,5.50
2024-01-01T09:22:25.712Z,6.60
2024-01-01T09:24:53.802Z,6.03
2024-01-01T09:27:23.398Z,6.57
2024-01-01T09:29:51.554Z,7.20
2024-01-01T09:32:19.703Z,4.78
2024-01-01T09:34:47.644Z,8.50
2024-01-01T09:37:15.679Z,8.63
2024-01-01T09:39:44.204Z,4.43
2024-01-01T09:42:12.150Z,9.60
2024-01-01T09:44:42.135Z,7.57
2024-01-01T09:47:11.796Z,6.88
2024-01-01T09:49:40.589Z,4.47
2024-01-01T09:52:08.513Z,8.98
2024-01-01T09:54:36.973Z,8.32
2024-01-01T09:57:07.923Z,5.10
2024-01-01T09:59:38.135Z,5.80
2024-01-01T10:02:09.754Z,5.13
2024-01-01T10:04:38.022Z,7.68
2024-01-01T10:07:07.210Z,9.75
2024-01-01T10:09:48.188Z,7.63
2024-01-01T10:12:21.844Z,5.20
2024-01-01T10:14:54.879Z,7.70
2024-01-01T10:17:26.982Z,6.28
2024-01-01T10:19:57.702Z,4.32
2024-01-01T10:22:29.924Z,6.57
2024-01-01T10:25:11.455Z,6.10
2024-01-01T10:27:39.891Z,2.90
2024-01-01T10:30:08.107Z,6.70
2024-01-01T10:32:38.649Z,4.55
2024-01-01T10:35:08.339Z,6.20
2024-01-01T10:37:37.467Z,9.00
2024-01-01T10:40:07.423Z,5.47
2024-01-01T10:42:36.065Z,7.55
2024-01-01T10:45:05.082Z,7.15
2024-01-01T10:47:34.015Z,7.90
2024-01-01T10:50:17.818Z,5.57
2024-01-01T10:53:01.408Z,7.05
2024-01-01T10:55:44.931Z,5.80
2024-01-01T10:58:24.651Z,8.60
2024-01-01T11:01:05.014Z,6.20
2024-01-01T11:03:35.322Z,4.38
2024-01-01T11:06:28.513Z,4.15
2024-01-01T11:08:57.178Z,4.40
2024-01-01T11:11:33.629Z,3.80
2024-01-01T11:14:02.079Z,6.78
2024-01-01T11:17:00.620Z,5.55
2024-01-01T11:19:39.127Z,6.50
2024-01-01T11:22:33.120Z,6.20
2024-01-01T11:25:03.162Z,5.65
2024-01-01T11:27:33.011Z,4.80
2024-01-01T11:30:02.983Z,8.25
2024-01-01T11:32:31.157Z,6.28
2024-01-01T11:35:10.135Z,4.70
2024-01-01T11:37:41.741Z,7.00
2024-01-01T11:40:13.339Z,5.90
2024-01-01T11:42:42.959Z,3.95
2024-01-01T11:45:13.385Z,4.75
2024-01-01T11:47:42.385Z,7.28
2024-01-01T11:50:13.173Z,7.32
2024-01-01T11:52:43.769Z,8.80
2024-01-01T11:55:12.492Z,5.68
2024-01-01T11:57:43.603Z,5.38
2024-01-01T12:00:13.658Z,4.78
2024-01-01T12:02:42.661Z,3.00
2024-01-01T12:05:10.741Z,8.45
2024-01-01T12:07:38.757Z,4.95
2024-01-01T12:10:10.197Z,4.68
2024-01-01T12:12:39.747Z,4.07
2024-01-01T12:15:09.985Z,3.40
2024-01-01T12:17:43.359Z,4.40
2024-01-01T12:22:42.122Z,4.57
2024-01-01T12:25:16.683Z,4.80
2024-01-01T12:28:00.308Z,4.13
2024-01-01T12:30:29.027Z,6.63
2024-01-01T12:32:58.586Z,8.63
2024-01-01T12:35:27.229Z,3.30
2024-01-01T12:37:55.541Z,6.13
2024-01-01T12:40:27.018Z,6.20
2024-01-01T12:42:54.942Z,8.82
2024-01-01T12:45:23.903Z,4.90
2024-01-01T12:47:52.126Z,5.47
2024-01-01T12:50:21.064Z,3.67
2024-01-01T12:52:49.120Z,7.07
2024-01-01T12:55:17.125Z,4.20
2024-01-01T12:57:46.520Z,4.90
2024-01-01T13:00:15.097Z,4.47
2024-01-01T13:02:43.160Z,5.75
2024-01-01T13:05:12.748Z,4.35
2024-01-01T13:07:41.785Z,6.53
2024-01-01T13:10:10.404Z,3.92
2024-01-01T13:12:38.296Z,4.72
2024-01-01T13:15:08.997Z,5.72
2024-01-01T13:17:37.070Z,5.82
2024-01-01T13:20:05.678Z,4.25
2024-01-01T13:22:33.678Z,5.82
2024-01-01T13:25:01.549Z,4.00
2024-01-01T13:27:33.781Z,5.75
2024-01-01T13:30:02.961Z,6.22
2024-01-01T13:32:33.412Z,4.22
2024-01-01T13:35:04.055Z,5.95
2024-01-01T13:37:32.692Z,5.82
2024-01-01T13:40:01.617Z,4.18
2024-01-01T13:42:29.882Z,7.25
2024-01-01T13:44:57.930Z,6.20
2024-01-01T13:47:26.456Z,2.95
2024-01-01T13:49:55.813Z,6.10
2024-01-01T13:52:23.762Z,10.27
2024-01-01T13:54:51.713Z,9.10
2024-01-01T13:57:19.926Z,4.35
2024-01-01T13:59:47.788Z,4.32
2024-01-01T14:02:17.088Z,4.65
2024-01-01T14:04:45.044Z,4.53
2024-01-01T14:07:15.612Z,7.05
2024-01-01T14:09:43.613Z,4.38
2024-01-01T14:12:11.384Z,4.22
2024-01-01T14:14:43.545Z,5.45
2024-01-01T14:17:11.572Z,5.43
2024-01-01T14:19:39.514Z,6.47
2024-01-01T14:22:07.339Z,10.32
2024-01-01T14:24:36.696Z,8.18
2024-01-01T14:27:08.059Z,9.00
2024-01-01T14:29:35.982Z,9.90
2024-01-01T14:32:07.912Z,9.50
2024-01-01T14:34:37.195Z,10.35
2024-01-01T14:37:08.030Z,9.40
2024-01-01T14:39:37.684Z,8.18
2024-01-01T14:42:06.040Z,3.97
2024-01-01T14:44:34.181Z,6.50
2024-01-01T14:47:03.699Z,3.65
2024-01-01T14:49:31.535Z,4.40
2024-01-01T14:51:59.422Z,7.43
2024-01-01T14:54:27.703Z,1.65
2024-01-01T14:56:58.439Z,3.20
2024-01-01T14:59:26.446Z,4.60
2024-01-01T15:01:57.931Z,2.67
2024-01-01T15:04:26.507Z,2.70
2024-01-01T15:06:54.504Z,2.55
2024-01-01T15:09:22.728Z,5.38
2024-01-01T15:11:53.082Z,4.28
2024-01-01T15:14:22.436Z,1.10
2024-01-01T15:16:50.401Z,4.35
2024-01-01T15:19:19.693Z,2.67
2024-01-01T15:21:47.547Z,5.38
2024-01-01T15:24:17.145Z,7.55
2024-01-01T15:26:45.203Z,7.57
2024-01-01T15:29:13.501Z,3.47
2024-01-01T15:31:42.914Z,7.18
2024-01-01T15:34:11.029Z,7.95
2024-01-01T15:36:41.718Z,5.72
2024-01-01T15:39:14.700Z,8.15
2024-01-01T15:41:42.569Z,3.97
2024-01-01T15:44:11.093Z,7.35
2024-01-01T15:46:39.117Z,2.88
2024-01-01T15:49:11.497Z,2.47
2024-01-01T15:51:40.266Z,4.22
2024-01-01T15:54:08.649Z,13.57
2024-01-01T15:56:40.752Z,6.95
2024-01-01T15:59:08.681Z,7.00
2024-01-01T16:01:36.512Z,8.77
2024-01-01T16:04:04.544Z,10.68
2024-01-01T16:06:33.813Z,9.02
2024-01-01T16:09:01.770Z,11.95
2024-01-01T16:11:29.778Z,12.55
2024-01-01T16:13:57.721Z,11.05
2024-01-01T16:16:25.776Z,17.77
2024-01-01T16:18:53.878Z,11.20
2024-01-01T16:21:22.138Z,12.30
2024-01-01T16:23:52.005Z,12.10
2024-01-01T16:26:19.988Z,15.68
2024-01-01T16:28:47.811Z,12.15
2024-01-01T16:31:20.669Z,16.45
2024-01-01T16:33:48.537Z,16.95
2024-01-01T16:36:17.298Z,11.48
2024-01-01T16:38:45.201Z,14.10
2024-01-01T16:41:15.153Z,12.57
2024-01-01T16:43:43.100Z,16.60
2024-01-01T16:46:10.961Z,11.10
2024-01-01T16:48:39.167Z,14.52
2024-01-01T16:51:07.462Z,12.95
2024-01-01T16:53:35.576Z,17.67
2024-01-01T16:56:03.657Z,17.95
2024-01-01T16:58:32.890Z,15.90
2024-01-01T17:01:01.283Z,11.70
2024-01-01T17:03:29.409Z,20.60
2024-01-01T17:06:01.695Z,17.85
2024-01-01T17:08:30.653Z,14.98
2024-01-01T17:10:58.738Z,12.02
2024-01-01T17:13:26.645Z,17.67
2024-01-01T17:15:56.149Z,13.45
2024-01-01T17:18:24.022Z,12.95
2024-01-01T17:20:52.000Z,20.15
2024-01-01T17:23:19.857Z,24.67
2024-01-01T17:25:47.732Z,19.25
2024-01-01T17:28:15.577Z,15.65
2024-01-01T17:30:43.460Z,18.27
2024-01-01T17:33:13.627Z,12.32
2024-01-01T17:35:41.626Z,11.15
2024-01-01T17:38:09.414Z,14.45
2024-01-01T17:40:37.224Z,18.25
2024-01-01T17:43:05.408Z,12.70
2024-01-01T17:45:33.418Z,20.27
2024-01-01T17:48:01.746Z,23.52
2024-01-01T17:50:31.355Z,13.05
2024-01-01T17:52:59.289Z,19.25
2024-01-01T17:55:27.109Z,22.00
2024-01-01T17:57:55.200Z,20.35
2024-01-01T18:00:23.077Z,15.02
2024-01-01T18:02:50.906Z,13.30
2024-01-01T18:05:18.857Z,17.38
2024-01-01T18:07:48.145Z,15.55
2024-01-01T18:10:16.109Z,19.42
2024-01-01T18:12:44.026Z,13.90
2024-01-01T18:15:13.093Z,22.25
2024-01-01T18:17:41.220Z,18.42
2024-01-01T18:20:11.044Z,13.50
2024-01-01T18:22:39.649Z,14.13
2024-01-01T18:25:12.120Z,17.95
2024-01-01T18:27:42.466Z,18.38
2024-01-01T18:30:11.136Z,22.83
2024-01-01T18:32:39.170Z,18.48
2024-01-01T18:35:07.805Z,18.02
2024-01-01T18:37:35.714Z,15.90
2024-01-01T18:40:03.814Z,17.73
2024-01-01T18:42:33.358Z,18.83
2024-01-01T18:45:01.240Z,17.63
2024-01-01T18:47:29.264Z,20.45
2024-01-01T18:49:57.508Z,15.13
2024-01-01T18:52:25.507Z,20.95
2024-01-01T18:54:53.868Z,15.57
2024-01-01T18:57:21.729Z,11.20
2024-01-01T18:59:55.294Z,18.73
2024-01-01T19:04:50.900Z,14.75
2024-01-01T19:07:18.789Z,21.65
2024-01-01T19:09:48.434Z,23.70
2024-01-01T19:12:16.348Z,16.05
2024-01-01T19:14:44.239Z,21.20
2024-01-01T19:17:13.589Z,20.52
2024-01-01T19:19:41.986Z,17.58
2024-01-01T19:22:10.273Z,24.55
2024-01-01T19:24:38.189Z,18.45
2024-01-01T19:27:06.037Z,23.52
2024-01-01T19:29:33.888Z,32.25
2024-01-01T19:32:02.306Z,22.88
2024-01-01T19:34:31.481Z,14.70
2024-01-01T19:36:59.368Z,16.63
2024-01-01T19:39:30.547Z,10.38
2024-01-01T19:41:58.466Z,15.07
2024-01-01T19:44:26.562Z,18.33
2024-01-01T19:46:54.656Z,13.13
2024-01-01T19:49:23.571Z,16.50
2024-01-01T19:51:52.972Z,16.25
2024-01-01T19:54:20.776Z,13.98
2024-01-01T19:56:49.219Z,11.80
2024-01-01T19:59:17.059Z,16.92
2024-01-01T20:01:45.353Z,13.05
2024-01-01T20:04:16.222Z,17.85
2024-01-01T20:06:44.947Z,14.30
2024-01-01T20:09:14.735Z,14.00
2024-01-01T20:11:42.853Z,16.85
2024-01-01T20:14:12.309Z,14.25
2024-01-01T20:16:40.913Z,11.63
2024-01-01T20:19:11.309Z,14.82
2024-01-01T20:21:42.252Z,14.60
2024-01-01T20:24:11.062Z,20.70
2024-01-01T20:26:42.571Z,19.17
2024-01-01T20:29:11.199Z,17.83
2024-01-01T20:31:39.191Z,12.60
2024-01-01T20:34:10.435Z,12.70
2024-01-01T20:36:40.935Z,15.10
2024-01-01T20:39:09.042Z,16.05
2024-01-01T20:41:37.124Z,13.70
2024-01-01T20:44:09.600Z,21.42
2024-01-01T20:46:38.105Z,15.60
2024-01-01T20:49:07.495Z,14.02
2024-01-01T20:51:35.501Z,18.38
2024-01-01T20:54:04.478Z,14.25
2024-01-01T20:56:34.182Z,20.67
2024-01-01T20:59:03.577Z,17.70
2024-01-01T21:01:32.826Z,16.23
2024-01-01T21:04:00.640Z,18.60
2024-01-01T21:06:28.531Z,22.05
2024-01-01T21:08:56.697Z,12.25
2024-01-01T21:11:24.738Z,10.93
2024-01-01T21:13:52.673Z,18.42
2024-01-01T21:16:21.066Z,17.75
2024-01-01T21:18:50.400Z,14.18
2024-01-01T21:21:29.294Z,11.77
2024-01-01T21:23:59.686Z,14.63
2024-01-01T21:26:29.190Z,15.88
2024-01-01T21:28:57.268Z,14.15
2024-01-01T21:31:25.228Z,15.32
2024-01-01T21:33:54.525Z,15.02
2024-01-01T21:36:22.372Z,21.30
2024-01-01T21:38:50.317Z,17.13
2024-01-01T21:41:18.204Z,13.20
2024-01-01T21:43:46.018Z,13.57
2024-01-01T21:46:13.840Z,20.60
2024-01-01T21:48:43.669Z,17.73
2024-01-01T21:51:12.924Z,12.50
2024-01-01T21:53:40.815Z,19.13
2024-01-01T21:56:08.718Z,19.45
2024-01-01T21:58:36.766Z,13.50
2024-01-01T22:01:04.714Z,13.02
2024-01-01T22:03:34.405Z,13.43
2024-01-01T22:06:02.465Z,14.32
2024-01-01T22:08:31.943Z,15.50
2024-01-01T22:11:00.610Z,15.13
2024-01-01T22:13:28.653Z,11.80
2024-01-01T22:15:56.509Z,15.05
2024-01-01T22:18:24.446Z,10.30
2024-01-01T22:20:52.268Z,17.83
2024-01-01T22:23:22.805Z,17.13
2024-01-01T22:25:52.016Z,16.65
2024-01-01T22:28:19.863Z,14.05
2024-01-01T22:30:47.666Z,12.60
2024-01-01T22:33:18.573Z,11.70
2024-01-01T22:35:46.423Z,9.52
2024-01-01T22:38:14.320Z,11.77
2024-01-01T22:40:43.064Z,13.77
2024-01-01T22:43:12.233Z,11.38
2024-01-01T22:45:40.499Z,10.18
2024-01-01T22:48:09.233Z,9.02
2024-01-01T22:50:37.544Z,10.65
2024-01-01T22:53:05.830Z,8.27
2024-01-01T22:55:33.976Z,6.82
2024-01-01T22:58:01.867Z,15.55
2024-01-01T23:00:31.496Z,14.32
2024-01-01T23:02:59.650Z,13.20
2024-01-01T23:05:27.851Z,9.57
2024-01-01T23:07:55.854Z,15.38
2024-01-01T23:10:28.484Z,13.80
2024-01-01T23:12:57.264Z,15.83
2024-01-01T23:15:26.800Z,13.93
2024-01-01T23:17:56.398Z,14.52
2024-01-01T23:20:24.285Z,12.90
2024-01-01T23:22:55.586Z,15.93
2024-01-01T23:25:23.670Z,15.85
2024-01-01T23:27:51.702Z,17.42
2024-01-01T23:30:19.664Z,11.35
2024-01-01T23:32:48.677Z,12.05
2024-01-01T23:35:19.203Z,12.75
2024-01-01T23:37:47.185Z,19.92
2024-01-01T23:40:17.058Z,11.02
2024-01-01T23:42:45.200Z,12.77
2024-01-01T23:45:13.132Z,14.07
2024-01-01T23:47:40.973Z,15.23
2024-01-01T23:50:09.509Z,14.80
2024-01-01T23:52:38.786Z,9.95
2024-01-01T23:55:07.252Z,12.80
2024-01-01T23:57:35.126Z,10.25
